Time;durP1;ratioP1;P1;durP2;ratioP2;P2;SDS_P1;SDS_P2;PMS_P1;PMS_P2;Temp;Humidity;BMP_temperature;BMP_pressure;BME280_temperature;BME280_humidity;BME280_pressure;Samples;Min_cycle;Max_cycle;Signal;HPM_P1;HPM_P2
2021/09/08 00:00:15;;;;;;;9.60;7.22;;;19.20;76.10;;;;;;5052401;28;20056;-63
2021/09/08 00:02:41;;;;;;;9.60;7.45;;;19.20;77.10;;;;;;5052372;28;20504;-63
2021/09/08 00:05:09;;;;;;;9.90;7.55;;;19.20;76.60;;;;;;5034408;28;20120;-63
2021/09/08 00:07:34;;;;;;;9.07;7.25;;;19.20;76.70;;;;;;5052187;28;20014;-63
2021/09/08 00:10:00;;;;;;;10.80;7.75;;;19.10;76.90;;;;;;5052515;28;20512;-63
2021/09/08 00:12:26;;;;;;;9.88;7.93;;;19.10;77.20;;;;;;5052255;28;20022;-63
2021/09/08 00:14:51;;;;;;;10.43;8.20;;;19.00;77.30;;;;;;5052358;28;20023;-62
2021/09/08 00:17:17;;;;;;;11.05;7.28;;;19.00;77.60;;;;;;5052228;28;20111;-62
2021/09/08 00:19:42;;;;;;;9.95;7.75;;;19.00;77.90;;;;;;5052235;28;20021;-62
2021/09/08 00:22:08;;;;;;;8.63;7.25;;;18.90;78.10;;;;;;5052198;28;20192;-62
2021/09/08 00:24:33;;;;;;;10.93;8.13;;;18.90;78.30;;;;;;5053483;28;20037;-62
2021/09/08 00:27:03;;;;;;;12.25;7.93;;;18.80;78.50;;;;;;5056269;28;20048;-62
2021/09/08 00:29:29;;;;;;;12.07;7.75;;;18.80;78.70;;;;;;5056174;28;20013;-62
2021/09/08 00:31:55;;;;;;;10.15;8.15;;;18.80;78.90;;;;;;5056090;28;20032;-62
2021/09/08 00:34:20;;;;;;;11.88;7.95;;;18.80;79.00;;;;;;5055948;28;20169;-63
2021/09/08 00:36:46;;;;;;;9.65;8.02;;;18.70;79.20;;;;;;5056596;28;20024;-63
2021/09/08 00:39:11;;;;;;;9.50;7.63;;;18.70;79.30;;;;;;5056040;28;20116;-63
2021/09/08 00:41:37;;;;;;;10.38;7.38;;;18.70;79.50;;;;;;5055669;28;20624;-63
2021/09/08 00:44:10;;;;;;;9.90;8.55;;;18.60;79.60;;;;;;5055959;28;20021;-63
2021/09/08 00:46:40;;;;;;;11.75;7.97;;;18.60;79.80;;;;;;5055656;28;20036;-63
2021/09/08 00:49:05;;;;;;;11.15;8.02;;;18.60;80.00;;;;;;5056065;28;20025;-63
2021/09/08 00:51:32;;;;;;;12.05;9.02;;;18.60;80.10;;;;;;5055846;28;20074;-63
2021/09/08 00:53:59;;;;;;;10.98;8.95;;;18.50;80.10;;;;;;5055639;28;20048;-63
2021/09/08 00:56:26;;;;;;;10.88;8.25;;;18.50;80.30;;;;;;5037857;28;20076;-63
2021/09/08 00:58:52;;;;;;;11.18;8.68;;;18.50;80.40;;;;;;5055785;28;20469;-63
2021/09/08 01:01:19;;;;;;;10.82;8.05;;;18.50;80.50;;;;;;5037773;28;20025;-63
2021/09/08 01:03:45;;;;;;;11.10;8.38;;;18.40;80.60;;;;;;5055644;28;20050;-63
2021/09/08 01:06:10;;;;;;;11.10;8.15;;;18.40;80.60;;;;;;5037833;28;20115;-62
2021/09/08 01:08:37;;;;;;;11.20;8.82;;;18.40;80.70;;;;;;5055509;28;20362;-62
2021/09/08 01:11:05;;;;;;;13.68;9.30;;;18.40;80.80;;;;;;5055520;28;20025;-63
2021/09/08 01:13:31;;;;;;;10.65;8.55;;;18.40;80.80;;;;;;5055510;28;20481;-63
2021/09/08 01:15:59;;;;;;;10.73;8.63;;;18.30;80.90;;;;;;5055378;28;20029;-63
2021/09/08 01:18:25;;;;;;;12.30;8.70;;;18.30;81.10;;;;;;5055385;28;20456;-62
2021/09/08 01:20:50;;;;;;;12.88;9.40;;;18.30;81.20;;;;;;5037489;28;20032;-63
2021/09/08 01:23:16;;;;;;;13.07;9.27;;;18.30;81.40;;;;;;5055136;28;20029;-63
2021/09/08 01:25:42;;;;;;;11.32;8.70;;;18.30;81.50;;;;;;5055268;28;20447;-63
2021/09/08 01:28:07;;;;;;;11.63;8.27;;;18.20;81.60;;;;;;5055302;28;20113;-63
2021/09/08 01:30:33;;;;;;;12.38;8.65;;;18.20;81.50;;;;;;5055085;28;20071;-63
2021/09/08 01:33:01;;;;;;;11.93;9.20;;;18.20;81.60;;;;;;5055163;28;20108;-62
2021/09/08 01:35:26;;;;;;;11.05;8.82;;;18.20;81.70;;;;;;5054783;28;20067;-63
2021/09/08 01:37:52;;;;;;;14.63;9.63;;;18.10;81.70;;;;;;5054531;28;20029;-62
2021/09/08 01:40:18;;;;;;;11.80;8.38;;;18.10;81.90;;;;;;5054767;28;20087;-62
2021/09/08 01:42:45;;;;;;;11.68;8.60;;;18.10;82.00;;;;;;5054863;28;20024;-63
2021/09/08 01:45:15;;;;;;;11.57;8.63;;;18.10;82.20;;;;;;5054771;28;20036;-63
2021/09/08 01:47:42;;;;;;;10.35;8.52;;;18.00;82.20;;;;;;5036886;28;20064;-63
2021/09/08 01:50:09;;;;;;;11.50;8.93;;;18.00;82.40;;;;;;5036935;28;20100;-63
2021/09/08 01:52:35;;;;;;;11.68;9.35;;;18.00;82.50;;;;;;5036884;28;20013;-63
2021/09/08 01:55:01;;;;;;;10.88;8.82;;;17.90;82.60;;;;;;5054515;28;20500;-62
2021/09/08 01:57:26;;;;;;;13.05;8.40;;;17.90;82.70;;;;;;5054630;28;20040;-63
2021/09/08 01:59:52;;;;;;;11.32;9.27;;;17.90;82.70;;;;;;5036760;28;20644;-63
2021/09/08 02:02:17;;;;;;;11.68;9.57;;;17.90;82.90;;;;;;5036762;28;20035;-63
2021/09/08 02:04:43;;;;;;;13.38;9.57;;;17.80;82.90;;;;;;5054605;28;20031;-63
2021/09/08 02:07:08;;;;;;;11.48;9.45;;;17.80;83.00;;;;;;5036524;28;20036;-63
2021/09/08 02:09:34;;;;;;;12.65;9.35;;;17.80;83.10;;;;;;5054772;28;20025;-63
2021/09/08 02:11:59;;;;;;;14.05;8.30;;;17.80;83.90;;;;;;5036514;28;20534;-63
2021/09/08 02:14:25;;;;;;;12.90;9.55;;;17.80;83.40;;;;;;5054493;28;20032;-63
2021/09/08 02:16:50;;;;;;;13.45;9.57;;;17.80;83.60;;;;;;5054324;28;20029;-62
2021/09/08 02:19:16;;;;;;;12.45;9.43;;;17.70;83.60;;;;;;5036348;28;20029;-63
2021/09/08 02:21:41;;;;;;;12.98;9.25;;;17.70;84.40;;;;;;5054298;28;20504;-63
2021/09/08 02:24:07;;;;;;;11.90;9.32;;;17.70;84.00;;;;;;5054114;28;20392;-63
2021/09/08 02:26:32;;;;;;;11.65;9.60;;;17.60;84.00;;;;;;5053981;28;20032;-63
2021/09/08 02:28:58;;;;;;;12.65;9.70;;;17.60;84.10;;;;;;5054328;28;20496;-63
2021/09/08 02:31:24;;;;;;;12.93;10.32;;;17.60;84.20;;;;;;5054075;28;20018;-63
2021/09/08 02:33:50;;;;;;;11.60;9.48;;;17.60;84.40;;;;;;5054002;28;20487;-63
2021/09/08 02:36:16;;;;;;;12.55;9.77;;;17.60;84.50;;;;;;5053966;28;20033;-63
2021/09/08 02:38:41;;;;;;;12.85;10.35;;;17.60;84.70;;;;;;5053995;28;20082;-63
2021/09/08 02:41:08;;;;;;;12.98;9.95;;;17.60;84.70;;;;;;5053486;28;20132;-63
2021/09/08 02:43:37;;;;;;;13.95;9.75;;;17.50;84.80;;;;;;5054047;28;20086;-63
2021/09/08 02:46:03;;;;;;;12.57;10.13;;;17.50;85.00;;;;;;5053640;28;20025;-63
2021/09/08 02:48:32;;;;;;;13.20;9.82;;;17.50;85.10;;;;;;5052709;28;20033;-63
2021/09/08 02:50:59;;;;;;;14.10;10.63;;;17.50;85.20;;;;;;5053708;28;20532;-63
2021/09/08 02:53:27;;;;;;;14.18;9.40;;;17.40;85.30;;;;;;5053566;28;20041;-62
2021/09/08 02:55:53;;;;;;;12.25;9.45;;;17.50;85.50;;;;;;5053237;28;20021;-63
2021/09/08 02:58:19;;;;;;;14.25;9.98;;;17.40;85.60;;;;;;5053800;28;20104;-63
2021/09/08 03:00:44;;;;;;;12.25;8.70;;;17.40;85.60;;;;;;5053470;28;20519;-63
2021/09/08 03:03:10;;;;;;;12.27;9.82;;;17.40;85.60;;;;;;5053364;28;20033;-63
2021/09/08 03:05:35;;;;;;;11.43;9.52;;;17.40;85.70;;;;;;5053516;28;20028;-62
2021/09/08 03:08:18;;;;;;;;;;;;;;;;;;;;;
2021/09/08 03:10:46;;;;;;;12.27;9.80;;;17.30;85.90;;;;;;5049377;28;20035;-63
2021/09/08 03:13:13;;;;;;;16.17;10.05;;;17.30;86.00;;;;;;5053215;28;20071;-63
2021/09/08 03:15:38;;;;;;;13.02;10.23;;;17.30;86.20;;;;;;5053450;28;20021;-63
2021/09/08 03:18:05;;;;;;;13.80;9.52;;;17.20;86.20;;;;;;5053143;28;20032;-63
2021/09/08 03:20:31;;;;;;;11.73;8.95;;;17.20;86.20;;;;;;5053161;28;20033;-63
2021/09/08 03:22:58;;;;;;;15.77;10.85;;;17.20;86.40;;;;;;5052986;28;20021;-63
2021/09/08 03:25:23;;;;;;;12.57;10.15;;;17.10;86.40;;;;;;5052891;28;20041;-62
2021/09/08 03:27:49;;;;;;;12.52;9.80;;;17.10;86.60;;;;;;5053080;28;20437;-63
2021/09/08 03:30:14;;;;;;;10.90;9.05;;;17.10;86.70;;;;;;5052951;28;20433;-63
2021/09/08 03:32:40;;;;;;;12.80;9.07;;;17.10;86.80;;;;;;5053013;28;20029;-63
2021/09/08 03:35:06;;;;;;;12.85;9.45;;;17.10;86.90;;;;;;5053015;28;20021;-63
2021/09/08 03:37:31;;;;;;;12.65;9.88;;;17.10;87.00;;;;;;5052789;28;20025;-62
2021/09/08 03:39:57;;;;;;;14.48;10.30;;;17.00;87.10;;;;;;5052897;28;20465;-63
2021/09/08 03:42:24;;;;;;;14.93;10.32;;;17.00;87.30;;;;;;5052469;28;20447;-62
2021/09/08 03:44:50;;;;;;;12.25;9.70;;;17.00;87.40;;;;;;5052883;28;20109;-62
2021/09/08 03:47:16;;;;;;;13.23;9.48;;;17.00;87.50;;;;;;5052715;28;20112;-63
2021/09/08 03:49:45;;;;;;;13.55;10.38;;;17.00;87.60;;;;;;5052731;28;20107;-62
2021/09/08 03:52:12;;;;;;;11.95;9.82;;;16.90;87.70;;;;;;5052369;28;20017;-63
2021/09/08 03:54:37;;;;;;;13.25;10.60;;;16.90;87.80;;;;;;5052637;28;20493;-62
2021/09/08 03:57:03;;;;;;;13.93;11.10;;;16.90;87.90;;;;;;5034608;28;20060;-63
2021/09/08 03:59:28;;;;;;;14.32;10.73;;;16.90;88.00;;;;;;5034495;28;20021;-63
2021/09/08 04:01:54;;;;;;;14.32;11.13;;;16.90;88.00;;;;;;5052683;28;20029;-63
2021/09/08 04:04:19;;;;;;;12.80;10.27;;;16.90;88.10;;;;;;5052600;28;20116;-63
2021/09/08 04:06:45;;;;;;;12.43;9.63;;;16.90;88.10;;;;;;5052392;28;20057;-63
2021/09/08 04:09:10;;;;;;;17.02;11.35;;;16.80;88.20;;;;;;5052520;28;20484;-63
2021/09/08 04:11:36;;;;;;;12.68;10.00;;;16.80;88.30;;;;;;5034632;28;20033;-62
2021/09/08 04:14:02;;;;;;;13.57;10.80;;;16.80;88.40;;;;;;5034662;28;20017;-63
2021/09/08 04:16:27;;;;;;;13.27;10.30;;;16.80;88.50;;;;;;5052543;28;20393;-63
2021/09/08 04:18:53;;;;;;;13.70;10.13;;;16.70;88.50;;;;;;5052405;28;20488;-63
2021/09/08 04:21:18;;;;;;;14.32;10.77;;;16.70;88.60;;;;;;5052366;28;20096;-62
2021/09/08 04:23:44;;;;;;;13.55;10.60;;;16.70;88.60;;;;;;5034597;28;20021;-63
2021/09/08 04:26:09;;;;;;;13.13;10.00;;;16.70;88.70;;;;;;5052313;28;20108;-62
2021/09/08 04:28:35;;;;;;;14.00;10.10;;;16.70;88.70;;;;;;5052234;28;20029;-62
2021/09/08 04:31:00;;;;;;;13.75;10.43;;;16.70;88.80;;;;;;5052400;28;20029;-63
2021/09/08 04:34:29;;;;;;;14.65;10.38;;;16.60;88.80;;;;;;5052295;28;20385;-63
2021/09/08 04:36:47;;;;;;;12.02;9.23;;;16.70;88.80;;;;;;5049326;28;20037;-62
2021/09/08 04:39:37;;;;;;;14.48;10.43;;;16.50;89.00;;;;;;5052133;28;20511;-63
2021/09/08 04:42:02;;;;;;;13.65;10.15;;;16.60;89.00;;;;;;5051149;28;20500;-62
2021/09/08 04:44:27;;;;;;;13.05;10.30;;;16.50;89.00;;;;;;5052312;28;20035;-62
2021/09/08 04:46:53;;;;;;;13.65;10.43;;;16.50;89.10;;;;;;5052220;28;20036;-62
2021/09/08 04:49:18;;;;;;;14.55;10.85;;;16.50;89.30;;;;;;5052123;28;20028;-62
2021/09/08 04:51:44;;;;;;;14.70;10.85;;;16.50;89.30;;;;;;5052222;28;20017;-62
2021/09/08 04:54:11;;;;;;;13.15;10.73;;;16.50;89.40;;;;;;5051879;28;20100;-62
2021/09/08 04:56:37;;;;;;;13.38;10.23;;;16.50;89.50;;;;;;5051989;28;20433;-62
2021/09/08 04:59:03;;;;;;;15.52;11.18;;;16.40;89.60;;;;;;5034024;28;20102;-63
2021/09/08 05:01:28;;;;;;;14.57;10.82;;;16.40;89.70;;;;;;5034279;28;20059;-63
2021/09/08 05:03:54;;;;;;;12.68;10.50;;;16.40;89.80;;;;;;5017748;28;20108;-62
2021/09/08 05:06:19;;;;;;;13.57;10.63;;;16.40;89.90;;;;;;5051892;28;20033;-62
2021/09/08 05:08:45;;;;;;;15.05;11.30;;;16.40;90.00;;;;;;5051997;28;20033;-62
2021/09/08 05:11:12;;;;;;;15.60;11.15;;;16.30;90.00;;;;;;5068400;28;20496;-62
2021/09/08 05:13:38;;;;;;;14.43;10.98;;;16.40;90.10;;;;;;5056711;28;20017;-63
2021/09/08 05:16:04;;;;;;;12.60;9.52;;;16.30;90.10;;;;;;5072025;28;20096;-63
2021/09/08 05:18:29;;;;;;;15.18;10.77;;;16.40;90.10;;;;;;5072119;28;20028;-63
2021/09/08 05:20:55;;;;;;;14.07;9.68;;;16.30;90.10;;;;;;5074656;28;20494;-63
2021/09/08 05:23:46;;;;;;;14.20;10.68;;;16.30;90.10;;;;;;5071830;28;20028;-62
2021/09/08 05:26:11;;;;;;;12.95;9.88;;;16.40;90.10;;;;;;5074389;28;20021;-63
2021/09/08 05:28:37;;;;;;;13.52;10.70;;;16.30;90.20;;;;;;5074413;28;20013;-62
2021/09/08 05:31:02;;;;;;;13.00;9.90;;;16.30;90.20;;;;;;5071635;28;20491;-62
2021/09/08 05:33:28;;;;;;;12.75;9.90;;;16.30;90.20;;;;;;5074504;28;20027;-63
2021/09/08 05:35:53;;;;;;;15.43;10.63;;;16.30;90.20;;;;;;5065255;28;20465;-63
2021/09/08 05:38:20;;;;;;;16.02;10.20;;;16.30;90.30;;;;;;5066680;28;20033;-63
2021/09/08 05:40:47;;;;;;;12.68;10.27;;;16.30;90.30;;;;;;5065376;28;20074;-62
2021/09/08 05:43:12;;;;;;;15.23;10.02;;;16.30;90.30;;;;;;5055131;28;20029;-62
2021/09/08 05:45:38;;;;;;;13.77;10.25;;;16.30;90.30;;;;;;5062441;28;20096;-63
2021/09/08 05:48:04;;;;;;;14.10;10.07;;;16.30;90.30;;;;;;5065428;28;20029;-62
2021/09/08 05:50:29;;;;;;;15.20;10.07;;;16.30;90.30;;;;;;5062370;28;20032;-62
2021/09/08 05:52:55;;;;;;;12.85;10.48;;;16.30;90.40;;;;;;5039226;28;20017;-62
2021/09/08 05:55:20;;;;;;;14.80;10.00;;;16.40;90.40;;;;;;5064369;28;20024;-63
2021/09/08 05:57:46;;;;;;;12.32;9.07;;;16.40;90.50;;;;;;5066629;28;20017;-62
2021/09/08 06:00:12;;;;;;;15.23;10.75;;;16.30;90.50;;;;;;5064996;28;20477;-62
2021/09/08 06:02:38;;;;;;;16.35;12.30;;;16.40;90.50;;;;;;5060536;28;20108;-62
2021/09/08 06:05:04;;;;;;;17.92;13.60;;;16.40;90.60;;;;;;5049328;28;20095;-63
2021/09/08 06:07:30;;;;;;;18.15;14.25;;;16.40;90.70;;;;;;5064368;28;20051;-62
2021/09/08 06:10:10;;;;;;;18.83;12.20;;;16.40;90.80;;;;;;5063467;28;20025;-63
2021/09/08 06:12:36;;;;;;;16.67;12.90;;;16.40;90.90;;;;;;5065420;28;20496;-63
2021/09/08 06:15:02;;;;;;;17.67;13.57;;;16.40;91.00;;;;;;5067950;28;20021;-62
2021/09/08 06:17:35;;;;;;;18.45;13.02;;;16.50;91.10;;;;;;5065754;28;20016;-62
2021/09/08 06:20:01;;;;;;;16.35;13.20;;;16.40;91.20;;;;;;5040794;28;20033;-63
2021/09/08 06:22:26;;;;;;;18.70;15.10;;;16.40;91.30;;;;;;5049765;28;20027;-63
2021/09/08 06:24:52;;;;;;;17.25;14.52;;;16.50;91.60;;;;;;5060032;28;20357;-63
2021/09/08 06:27:17;;;;;;;18.52;13.40;;;16.50;91.70;;;;;;5063790;28;20028;-62
2021/09/08 06:29:43;;;;;;;18.23;14.02;;;16.50;91.80;;;;;;5066438;28;20044;-63
2021/09/08 06:32:08;;;;;;;18.17;14.43;;;16.60;91.80;;;;;;5061307;28;20416;-63
2021/09/08 06:34:34;;;;;;;21.08;14.80;;;16.60;91.90;;;;;;5064578;28;20017;-63
2021/09/08 06:37:00;;;;;;;19.90;15.75;;;16.60;92.10;;;;;;5062098;28;20028;-62
2021/09/08 06:39:25;;;;;;;20.60;15.82;;;16.60;92.10;;;;;;5063236;28;20020;-63
2021/09/08 06:41:51;;;;;;;19.38;14.40;;;16.70;92.20;;;;;;5064735;28;20127;-63
2021/09/08 06:44:17;;;;;;;19.33;13.77;;;16.70;92.20;;;;;;5057815;28;20025;-63
2021/09/08 06:46:43;;;;;;;18.95;13.35;;;16.80;92.30;;;;;;5042340;28;20028;-63
2021/09/08 06:49:09;;;;;;;16.73;12.55;;;16.80;92.20;;;;;;5041543;28;20060;-63
2021/09/08 06:51:34;;;;;;;15.57;13.30;;;16.90;92.30;;;;;;5059237;28;20032;-63
2021/09/08 06:54:00;;;;;;;15.27;12.13;;;16.90;92.30;;;;;;5056629;28;20033;-64
2021/09/08 06:56:25;;;;;;;16.75;11.93;;;16.90;92.20;;;;;;5041810;28;20016;-63
2021/09/08 06:58:51;;;;;;;17.23;11.65;;;17.00;92.30;;;;;;5054772;28;20488;-63
2021/09/08 07:01:16;;;;;;;15.75;12.00;;;17.00;92.30;;;;;;5055831;28;20029;-62
2021/09/08 07:03:42;;;;;;;16.58;12.50;;;17.10;92.30;;;;;;5056305;28;20613;-65
2021/09/08 07:06:07;;;;;;;13.10;10.75;;;17.10;92.30;;;;;;5070105;28;20126;-66
2021/09/08 07:08:41;;;;;;;14.15;11.55;;;17.20;92.30;;;;;;5069228;28;20028;-66
2021/09/08 07:11:07;;;;;;;16.92;12.38;;;17.20;92.30;;;;;;5067051;28;20084;-66
2021/09/08 07:13:32;;;;;;;16.13;12.82;;;17.30;92.40;;;;;;5056362;28;20021;-66
2021/09/08 07:15:58;;;;;;;15.10;11.75;;;17.40;92.50;;;;;;5045185;28;20021;-66
2021/09/08 07:18:25;;;;;;;16.17;11.80;;;17.40;92.40;;;;;;5060846;28;20134;-66
2021/09/08 07:20:50;;;;;;;16.67;12.77;;;17.50;92.50;;;;;;5063607;28;20078;-66
2021/09/08 07:23:16;;;;;;;15.98;13.07;;;17.50;92.50;;;;;;5072025;28;20032;-66
2021/09/08 07:25:41;;;;;;;17.23;12.95;;;17.60;92.60;;;;;;5058010;28;20425;-66
2021/09/08 07:28:07;;;;;;;16.58;13.05;;;17.70;92.60;;;;;;5051982;28;20027;-66
2021/09/08 07:30:32;;;;;;;16.00;12.48;;;17.70;92.60;;;;;;5034718;28;20071;-66
2021/09/08 07:32:58;;;;;;;16.40;12.30;;;17.80;92.60;;;;;;5052795;28;20025;-66
2021/09/08 07:35:24;;;;;;;17.25;12.70;;;17.80;92.60;;;;;;5039165;28;20041;-66
2021/09/08 07:37:49;;;;;;;14.88;12.50;;;18.00;92.60;;;;;;5028740;28;20020;-66
2021/09/08 07:40:15;;;;;;;19.98;12.38;;;18.00;92.60;;;;;;5013166;28;20111;-65
2021/09/08 07:42:40;;;;;;;16.02;11.05;;;18.10;92.60;;;;;;5053962;28;20500;-65
2021/09/08 07:45:07;;;;;;;13.95;10.40;;;18.20;92.50;;;;;;5066556;28;20017;-65
2021/09/08 07:47:33;;;;;;;13.88;11.13;;;18.20;92.40;;;;;;5071641;28;20021;-65
2021/09/08 07:49:58;;;;;;;14.32;11.57;;;18.30;92.40;;;;;;5054077;28;20017;-65
2021/09/08 07:52:24;;;;;;;19.23;13.68;;;18.40;92.40;;;;;;5058961;28;20062;-65
2021/09/08 07:54:49;;;;;;;16.20;11.48;;;18.50;92.50;;;;;;5068704;28;20191;-65
2021/09/08 07:57:15;;;;;;;14.45;10.35;;;18.60;92.40;;;;;;5053975;28;20021;-65
2021/09/08 07:59:40;;;;;;;13.90;8.35;;;18.70;92.10;;;;;;5047866;28;20384;-65
2021/09/08 08:02:06;;;;;;;13.73;9.88;;;18.80;91.90;;;;;;5037382;28;20460;-65
2021/09/08 08:04:31;;;;;;;12.65;9.77;;;18.90;91.40;;;;;;5052471;28;20037;-66
2021/09/08 08:06:57;;;;;;;14.85;10.45;;;19.10;90.80;;;;;;5052486;28;20032;-65
2021/09/08 08:09:22;;;;;;;13.75;9.45;;;19.20;90.20;;;;;;5034635;28;20021;-66
2021/09/08 08:11:48;;;;;;;14.40;10.35;;;19.30;89.70;;;;;;5052529;28;20388;-66
2021/09/08 08:14:13;;;;;;;12.45;9.27;;;19.40;89.00;;;;;;5050898;28;20060;-65
2021/09/08 08:16:39;;;;;;;11.85;9.13;;;19.50;88.60;;;;;;5034250;28;20101;-65
2021/09/08 08:19:05;;;;;;;15.07;10.75;;;19.60;88.30;;;;;;5052294;28;20040;-65
2021/09/08 08:21:31;;;;;;;13.80;9.77;;;19.70;87.00;;;;;;5050694;28;20052;-63
2021/09/08 08:24:05;;;;;;;13.90;9.38;;;19.80;86.70;;;;;;5052366;28;20027;-63
2021/09/08 08:26:30;;;;;;;14.40;8.93;;;20.00;86.90;;;;;;5052226;28;20064;-63
2021/09/08 08:29:04;;;;;;;9.63;7.82;;;20.00;86.80;;;;;;5052233;28;20021;-63
2021/09/08 08:31:30;;;;;;;10.80;8.65;;;20.20;86.70;;;;;;5052584;28;20045;-63
2021/09/08 08:33:55;;;;;;;11.43;8.93;;;20.20;86.50;;;;;;5052109;28;20049;-63
2021/09/08 08:36:21;;;;;;;15.13;9.75;;;20.30;86.00;;;;;;5052150;28;20511;-63
2021/09/08 08:38:47;;;;;;;13.90;10.80;;;20.40;85.30;;;;;;5052274;28;20033;-63
2021/09/08 08:41:13;;;;;;;11.95;10.02;;;20.50;84.30;;;;;;5051773;28;20087;-63
2021/09/08 08:43:39;;;;;;;13.05;9.80;;;20.60;83.30;;;;;;5052027;28;20370;-63
2021/09/08 08:46:06;;;;;;;14.93;10.02;;;20.70;81.90;;;;;;5036279;28;20067;-63
2021/09/08 08:48:31;;;;;;;10.98;8.73;;;20.90;81.40;;;;;;5055716;28;20029;-63
2021/09/08 08:51:23;;;;;;;13.07;10.32;;;21.00;81.70;;;;;;5055869;28;20035;-63
2021/09/08 08:53:49;;;;;;;12.63;10.13;;;21.10;80.60;;;;;;5039192;28;20032;-63
2021/09/08 08:56:16;;;;;;;13.32;8.57;;;21.20;80.00;;;;;;5055585;28;20025;-64
2021/09/08 08:58:41;;;;;;;10.40;8.05;;;21.20;79.60;;;;;;5055708;28;20029;-63
2021/09/08 09:01:21;;;;;;;11.07;8.40;;;21.30;80.00;;;;;;5055756;28;20033;-63
2021/09/08 09:04:01;;;;;;;8.55;6.97;;;21.50;80.30;;;;;;5055587;28;20044;-63
2021/09/08 09:06:28;;;;;;;9.80;7.45;;;21.50;80.80;;;;;;5040074;28;20056;-63
2021/09/08 09:08:58;;;;;;;10.05;8.20;;;21.60;80.30;;;;;;5053483;28;20378;-63
2021/09/08 09:11:24;;;;;;;12.00;8.55;;;21.70;80.10;;;;;;5037032;28;20029;-64
2021/09/08 09:13:50;;;;;;;9.15;7.72;;;21.70;80.00;;;;;;5055462;28;20476;-63
2021/09/08 09:16:15;;;;;;;10.60;8.10;;;21.80;80.00;;;;;;5055421;28;20017;-63
2021/09/08 09:18:43;;;;;;;13.90;8.07;;;21.90;79.70;;;;;;5055288;28;20178;-64
2021/09/08 09:21:15;;;;;;;13.50;9.10;;;22.00;79.40;;;;;;5037681;28;20031;-63
2021/09/08 09:23:45;;;;;;;10.57;8.13;;;22.00;78.70;;;;;;5055292;28;20024;-64
2021/09/08 09:26:11;;;;;;;11.15;8.82;;;22.10;78.70;;;;;;5055195;28;20031;-64
2021/09/08 09:28:42;;;;;;;14.05;9.95;;;22.20;78.60;;;;;;5064951;28;20100;-64
2021/09/08 09:31:12;;;;;;;11.13;8.60;;;22.40;77.40;;;;;;5069036;28;20052;-64
2021/09/08 09:33:42;;;;;;;10.45;7.35;;;22.40;77.60;;;;;;5071637;28;20021;-64
2021/09/08 09:36:23;;;;;;;11.45;8.27;;;22.50;77.60;;;;;;5052049;28;20032;-64
2021/09/08 09:38:51;;;;;;;9.55;7.65;;;22.70;77.40;;;;;;5074431;28;20024;-64
2021/09/08 09:41:31;;;;;;;11.82;8.20;;;22.70;77.00;;;;;;5073955;28;20389;-64
2021/09/08 09:44:04;;;;;;;11.80;7.97;;;22.80;76.90;;;;;;5074099;28;20054;-64
2021/09/08 09:46:30;;;;;;;10.20;7.75;;;22.90;76.70;;;;;;5035961;28;20044;-64
2021/09/08 09:48:55;;;;;;;9.75;7.88;;;23.00;76.50;;;;;;5028118;28;20036;-64
2021/09/08 09:51:21;;;;;;;11.43;7.60;;;23.10;76.30;;;;;;5034463;28;20039;-64
2021/09/08 09:53:46;;;;;;;12.07;8.77;;;23.20;76.20;;;;;;5068831;28;20016;-64
2021/09/08 09:56:13;;;;;;;11.93;8.30;;;23.30;75.50;;;;;;5074005;28;20073;-64
2021/09/08 09:58:39;;;;;;;11.55;8.43;;;23.40;74.30;;;;;;5055260;28;20012;-64
2021/09/08 10:01:05;;;;;;;9.52;7.53;;;23.60;73.60;;;;;;5050590;28;20036;-64
2021/09/08 10:03:31;;;;;;;9.40;7.90;;;23.70;73.70;;;;;;5073799;28;20025;-64
2021/09/08 10:05:59;;;;;;;9.70;6.95;;;23.80;73.40;;;;;;5074099;28;20507;-64
2021/09/08 10:08:27;;;;;;;10.77;8.80;;;24.00;73.20;;;;;;5074348;28;20021;-64
2021/09/08 10:10:55;;;;;;;9.07;7.95;;;24.10;71.80;;;;;;5074449;28;20028;-64
2021/09/08 10:13:55;;;;;;;9.02;7.75;;;24.30;71.40;;;;;;5072965;28;20024;-64
2021/09/08 10:16:22;;;;;;;8.00;6.93;;;24.50;70.80;;;;;;5055859;28;20120;-64
2021/09/08 10:18:48;;;;;;;12.10;7.78;;;24.60;70.70;;;;;;5071527;28;20021;-64
2021/09/08 10:21:19;;;;;;;8.18;6.70;;;24.70;70.40;;;;;;5072015;28;20025;-64
2021/09/08 10:23:58;;;;;;;9.93;7.97;;;24.90;70.20;;;;;;5073543;28;20043;-64
2021/09/08 10:26:29;;;;;;;8.45;7.47;;;25.10;68.70;;;;;;5073778;28;20028;-64
2021/09/08 10:28:57;;;;;;;8.68;7.53;;;25.30;67.50;;;;;;5074019;28;20099;-64
2021/09/08 10:31:23;;;;;;;9.38;7.25;;;25.50;65.90;;;;;;5039600;28;20031;-64
2021/09/08 10:33:55;;;;;;;10.02;7.63;;;25.70;65.90;;;;;;5073947;28;20427;-64
2021/09/08 10:36:21;;;;;;;11.20;8.00;;;25.80;64.50;;;;;;5052622;28;20059;-64
2021/09/08 10:39:09;;;;;;;9.23;7.95;;;26.10;64.90;;;;;;5054960;28;20032;-64
2021/09/08 10:41:40;;;;;;;9.57;8.13;;;26.30;62.70;;;;;;5072179;28;20045;-64
2021/09/08 10:44:06;;;;;;;8.80;7.22;;;26.50;61.50;;;;;;5071518;28;20155;-64
2021/09/08 10:46:50;;;;;;;10.05;8.15;;;26.70;61.80;;;;;;5071841;28;20123;-65
2021/09/08 10:49:45;;;;;;;8.15;7.03;;;27.20;60.70;;;;;;5070406;28;20024;-65
2021/09/08 10:52:35;;;;;;;7.60;6.78;;;27.60;60.70;;;;;;5067727;28;20028;-65
2021/09/08 10:55:00;;;;;;;6.45;5.75;;;28.30;59.70;;;;;;5069861;28;20016;-65
2021/09/08 10:57:48;;;;;;;7.38;6.00;;;31.00;58.30;;;;;;5069962;28;20024;-65
2021/09/08 11:00:25;;;;;;;6.75;5.95;;;33.50;53.90;;;;;;5072564;28;20020;-65
2021/09/08 11:02:51;;;;;;;6.82;6.00;;;35.00;50.20;;;;;;5069968;28;20759;-65
2021/09/08 11:05:16;;;;;;;8.13;6.18;;;35.40;49.20;;;;;;5066964;28;20020;-65
2021/09/08 11:07:44;;;;;;;7.03;5.80;;;35.60;48.20;;;;;;5072304;28;20028;-65
2021/09/08 11:10:10;;;;;;;6.72;4.65;;;35.90;48.20;;;;;;5052836;28;20025;-65
2021/09/08 11:12:49;;;;;;;5.80;5.30;;;36.40;48.60;;;;;;5053327;28;20028;-65
2021/09/08 11:15:18;;;;;;;5.95;5.43;;;36.90;48.00;;;;;;5065041;28;20024;-65
2021/09/08 11:18:04;;;;;;;;;;;38.40;47.60;;;;;;5071903;28;20112;-65
2021/09/08 11:20:29;;;;;;;6.93;5.68;;;39.90;47.20;;;;;;5071190;28;19904;-66
2021/09/08 11:23:06;;;;;;;7.47;6.43;;;40.90;42.10;;;;;;5071678;28;20024;-65
2021/09/08 11:25:40;;;;;;;7.40;6.43;;;40.70;39.10;;;;;;5069520;28;20028;-66
2021/09/08 11:28:07;;;;;;;5.30;4.90;;;41.20;38.70;;;;;;5072268;28;20025;-65
2021/09/08 11:30:38;;;;;;;7.38;6.68;;;42.90;38.30;;;;;;5071299;28;20103;-65
2021/09/08 11:33:14;;;;;;;7.03;6.43;;;42.30;33.90;;;;;;5053499;28;20025;-65
2021/09/08 11:35:52;;;;;;;6.18;5.68;;;41.50;34.90;;;;;;5068725;28;20047;-65
2021/09/08 11:38:26;;;;;;;7.53;6.82;;;41.60;34.30;;;;;;5070351;28;20066;-65
2021/09/08 11:41:06;;;;;;;7.13;6.43;;;41.10;33.60;;;;;;5050777;28;20542;-65
2021/09/08 11:43:32;;;;;;;7.50;6.80;;;40.60;34.50;;;;;;5070903;28;20079;-65
2021/09/08 11:46:08;;;;;;;6.13;5.53;;;40.80;34.00;;;;;;5068489;28;20021;-65
2021/09/08 11:48:34;;;;;;;7.18;6.57;;;41.10;35.00;;;;;;5051388;28;20551;-65
2021/09/08 11:51:05;;;;;;;6.57;5.97;;;41.50;33.40;;;;;;5049222;28;20111;-65
2021/09/08 11:53:44;;;;;;;6.80;6.25;;;41.30;33.80;;;;;;5069060;28;20021;-65
2021/09/08 11:56:15;;;;;;;6.07;5.57;;;41.60;33.00;;;;;;5051038;28;20468;-65
2021/09/08 11:58:42;;;;;;;7.10;6.43;;;41.70;32.70;;;;;;5069868;28;20025;-65
2021/09/08 12:01:10;;;;;;;7.28;6.60;;;41.30;32.20;;;;;;5068509;28;20090;-66
2021/09/08 12:03:37;;;;;;;;;;;41.10;33.30;;;;;;5070114;28;20024;-65
2021/09/08 12:06:18;;;;;;;12.93;8.68;;;40.50;33.70;;;;;;5071013;28;19995;-65
2021/09/08 12:08:54;;;;;;;7.57;6.85;;;40.20;34.40;;;;;;5063654;28;20021;-65
2021/09/08 12:11:35;;;;;;;7.70;6.57;;;40.40;34.10;;;;;;5066914;28;20016;-65
2021/09/08 12:14:26;;;;;;;8.82;7.25;;;41.80;33.00;;;;;;5068950;28;20024;-65
2021/09/08 12:16:57;;;;;;;7.70;7.00;;;42.00;32.80;;;;;;5052983;28;20016;-65
2021/09/08 12:19:27;;;;;;;8.00;7.13;;;41.70;33.20;;;;;;5069427;28;20077;-65
2021/09/08 12:22:14;;;;;;;7.55;6.85;;;41.60;32.90;;;;;;5074335;28;20046;-65
2021/09/08 12:24:46;;;;;;;9.05;7.28;;;42.00;33.00;;;;;;5074845;28;20111;-65
2021/09/08 12:27:48;;;;;;;7.35;6.47;;;42.10;32.20;;;;;;5072128;28;20492;-65
2021/09/08 12:30:19;;;;;;;6.72;6.13;;;41.90;32.80;;;;;;4992829;28;20081;-65
2021/09/08 12:32:48;;;;;;;7.85;7.15;;;43.30;33.30;;;;;;5059203;28;20033;-65
2021/09/08 12:35:32;;;;;;;6.18;5.70;;;44.40;31.90;;;;;;5073439;28;20031;-65
2021/09/08 12:37:58;;;;;;;7.00;6.43;;;45.50;31.20;;;;;;5062874;28;20467;-65
2021/09/08 12:40:23;;;;;;;8.48;7.68;;;44.60;30.70;;;;;;5069272;28;20036;-65
2021/09/08 12:42:49;;;;;;;7.90;6.80;;;43.50;30.60;;;;;;5072732;28;20047;-66